Time;durP1;ratioP1;P1;durP2;ratioP2;P2;SDS_P1;SDS_P2;PMS_P1;PMS_P2;Temp;Humidity;BMP_temperature;BMP_pressure;BME280_temperature;BME280_humidity;BME280_pressure;Samples;Min_cycle;Max_cycle;Signal;HPM_P1;HPM_P2
2023/09/13 00:02:07;;;;;;;12.82;10.68;;;22.00;89.60;;;;;;5052614;28;20040;-74
2023/09/13 00:04:32;;;;;;;16.15;10.70;;;22.00;89.50;;;;;;5052838;28;20029;-74
2023/09/13 00:06:58;;;;;;;13.07;9.90;;;22.00;89.70;;;;;;5052744;28;20033;-75
2023/09/13 00:09:24;;;;;;;11.88;9.65;;;22.00;89.70;;;;;;5052364;28;20040;-74
2023/09/13 00:11:50;;;;;;;16.67;10.75;;;22.00;89.80;;;;;;5052545;28;20111;-74
2023/09/13 00:14:15;;;;;;;11.23;9.95;;;22.00;89.90;;;;;;5052305;28;20037;-74
2023/09/13 00:16:41;;;;;;;13.35;10.23;;;22.00;89.90;;;;;;5052480;28;20025;-74
2023/09/13 00:19:07;;;;;;;17.63;9.93;;;22.00;90.00;;;;;;5056340;28;20040;-74
2023/09/13 00:21:33;;;;;;;11.25;9.80;;;22.00;90.00;;;;;;5056439;28;20023;-75
2023/09/13 00:23:59;;;;;;;16.90;9.82;;;22.00;90.00;;;;;;5056723;28;20024;-75
2023/09/13 00:26:25;;;;;;;12.43;10.10;;;22.00;90.00;;;;;;5056334;28;20124;-74
2023/09/13 00:28:51;;;;;;;14.05;8.95;;;22.10;90.00;;;;;;5056540;28;20025;-74
2023/09/13 00:31:17;;;;;;;10.15;9.15;;;22.10;90.00;;;;;;5056629;28;20025;-75
2023/09/13 00:33:42;;;;;;;11.43;9.63;;;22.10;90.00;;;;;;5055349;28;20029;-74
2023/09/13 00:36:08;;;;;;;13.25;9.50;;;22.10;90.00;;;;;;5055970;28;20040;-74
2023/09/13 00:38:34;;;;;;;11.63;10.07;;;22.20;90.00;;;;;;5056322;28;20100;-74
2023/09/13 00:40:59;;;;;;;12.70;10.27;;;22.20;89.90;;;;;;5056441;28;20021;-74
2023/09/13 00:43:26;;;;;;;16.55;10.00;;;22.20;89.90;;;;;;5056197;28;20021;-75
2023/09/13 00:45:52;;;;;;;13.27;10.10;;;22.20;89.70;;;;;;5056051;28;20024;-75
2023/09/13 00:48:18;;;;;;;13.35;10.60;;;22.20;89.60;;;;;;5056292;28;20025;-74
2023/09/13 00:50:46;;;;;;;12.73;9.70;;;22.30;89.50;;;;;;5055923;28;20017;-75
2023/09/13 00:53:13;;;;;;;12.75;10.50;;;22.30;89.20;;;;;;5054550;28;20047;-74
2023/09/13 00:55:40;;;;;;;15.52;10.63;;;22.30;89.10;;;;;;5055884;28;20547;-74
2023/09/13 00:58:06;;;;;;;11.65;10.32;;;22.30;89.20;;;;;;5054584;28;20025;-74
2023/09/13 01:00:33;;;;;;;10.73;9.65;;;22.30;89.20;;;;;;5053178;28;20021;-74
2023/09/13 01:03:01;;;;;;;11.23;10.13;;;22.20;89.40;;;;;;5053166;28;20108;-74
2023/09/13 01:05:26;;;;;;;11.55;10.35;;;22.20;89.70;;;;;;5053418;28;20250;-74
2023/09/13 01:07:52;;;;;;;14.57;10.45;;;22.20;89.90;;;;;;5055838;28;20024;-74
2023/09/13 01:10:19;;;;;;;12.70;10.00;;;22.20;90.00;;;;;;5055630;28;20021;-74
2023/09/13 01:12:45;;;;;;;14.93;10.50;;;22.20;89.90;;;;;;5054093;28;20393;-75
2023/09/13 01:15:12;;;;;;;11.30;10.10;;;22.20;89.80;;;;;;5055536;28;20032;-74
2023/09/13 01:18:03;;;;;;;10.48;9.38;;;22.20;89.80;;;;;;5055411;28;20021;-74
2023/09/13 01:21:05;;;;;;;11.45;9.75;;;22.20;89.30;;;;;;5055166;28;20418;-75
2023/09/13 01:24:02;;;;;;;11.52;10.10;;;22.20;89.20;;;;;;5055232;28;20057;-74
2023/09/13 01:26:54;;;;;;;12.68;10.68;;;22.20;89.20;;;;;;5055049;28;20104;-75
2023/09/13 01:29:21;;;;;;;10.73;9.55;;;22.20;89.00;;;;;;5054610;28;20435;-75
2023/09/13 01:31:47;;;;;;;16.50;10.57;;;22.20;88.80;;;;;;5055550;28;20025;-74
2023/09/13 01:34:12;;;;;;;14.07;9.88;;;22.20;88.70;;;;;;5055033;28;20037;-74
2023/09/13 01:36:38;;;;;;;11.07;9.88;;;22.20;88.70;;;;;;5054850;28;20032;-74
2023/09/13 01:39:05;;;;;;;10.95;9.90;;;22.20;88.50;;;;;;5055162;28;20091;-74
2023/09/13 01:41:39;;;;;;;15.15;10.52;;;22.20;88.40;;;;;;5055039;28;20021;-75
2023/09/13 01:44:06;;;;;;;12.70;10.30;;;22.20;88.50;;;;;;5054895;28;20500;-75
2023/09/13 01:46:38;;;;;;;11.38;9.55;;;22.20;88.50;;;;;;5055225;28;20025;-74
2023/09/13 01:49:05;;;;;;;18.52;9.60;;;22.10;88.60;;;;;;5054998;28;20477;-74
2023/09/13 01:51:32;;;;;;;12.75;9.88;;;22.10;88.60;;;;;;5054804;28;20109;-74
2023/09/13 01:53:58;;;;;;;12.20;9.55;;;22.10;89.00;;;;;;5055015;28;20091;-74
2023/09/13 01:56:24;;;;;;;15.25;10.32;;;22.10;89.00;;;;;;5054974;28;20506;-75
2023/09/13 01:58:50;;;;;;;12.10;9.20;;;22.10;88.90;;;;;;5054742;28;20060;-75
2023/09/13 02:01:17;;;;;;;11.13;9.25;;;22.10;89.00;;;;;;5054743;28;20543;-75
2023/09/13 02:03:44;;;;;;;15.60;9.85;;;22.10;88.90;;;;;;5055142;28;20092;-75
2023/09/13 02:06:10;;;;;;;12.73;9.95;;;22.10;88.70;;;;;;5054647;28;20059;-74
2023/09/13 02:08:38;;;;;;;16.08;9.20;;;22.10;88.60;;;;;;5054490;28;20017;-75
2023/09/13 02:11:06;;;;;;;10.57;9.38;;;22.10;88.60;;;;;;5054582;28;20501;-74
2023/09/13 02:13:32;;;;;;;16.30;10.32;;;22.10;88.60;;;;;;5054374;28;20473;-75
2023/09/13 02:15:58;;;;;;;13.02;10.05;;;22.10;88.60;;;;;;5054499;28;20025;-74
2023/09/13 02:18:24;;;;;;;11.40;10.02;;;22.10;88.60;;;;;;5054684;28;20017;-75
2023/09/13 02:20:50;;;;;;;13.35;9.77;;;22.10;88.60;;;;;;5054460;28;20484;-74
2023/09/13 02:23:15;;;;;;;18.42;9.93;;;22.10;88.70;;;;;;5052947;28;20175;-74
2023/09/13 02:25:45;;;;;;;12.80;10.02;;;22.00;88.90;;;;;;5054069;28;20014;-74
2023/09/13 02:28:11;;;;;;;13.48;10.30;;;22.00;89.20;;;;;;5053020;28;20025;-74
2023/09/13 02:30:38;;;;;;;16.55;10.18;;;22.00;89.30;;;;;;5054442;28;20079;-75
2023/09/13 02:33:04;;;;;;;14.52;9.88;;;22.00;89.30;;;;;;5054059;28;20025;-75
2023/09/13 02:35:31;;;;;;;18.75;10.15;;;21.90;89.20;;;;;;5053799;28;20025;-75
2023/09/13 02:37:58;;;;;;;15.85;10.75;;;21.90;89.20;;;;;;5054044;28;20021;-74
2023/09/13 02:40:23;;;;;;;12.38;10.13;;;21.90;89.30;;;;;;5053101;28;20116;-74
2023/09/13 02:42:49;;;;;;;11.75;10.55;;;21.90;89.40;;;;;;5052600;28;20052;-74
2023/09/13 02:45:15;;;;;;;16.75;10.30;;;21.90;89.50;;;;;;5053891;28;20032;-74
2023/09/13 02:47:42;;;;;;;12.52;10.23;;;21.80;89.50;;;;;;5054063;28;20024;-74
2023/09/13 02:50:08;;;;;;;18.35;11.13;;;21.80;89.70;;;;;;5053597;28;20029;-74
2023/09/13 02:52:34;;;;;;;16.48;10.70;;;21.80;89.70;;;;;;5053855;28;20033;-75
2023/09/13 02:55:01;;;;;;;16.65;10.18;;;21.80;89.60;;;;;;5053802;28;20540;-75
2023/09/13 02:57:27;;;;;;;14.20;10.38;;;21.80;89.60;;;;;;5052446;28;20111;-74
2023/09/13 02:59:53;;;;;;;13.13;9.75;;;21.80;89.60;;;;;;5053453;28;20040;-74
2023/09/13 03:02:20;;;;;;;13.20;10.10;;;21.80;89.80;;;;;;5053533;28;20100;-75
2023/09/13 03:04:50;;;;;;;15.65;11.20;;;21.80;89.70;;;;;;5053027;28;20169;-74
2023/09/13 03:07:16;;;;;;;14.73;11.70;;;21.80;89.50;;;;;;5053145;28;20028;-74
2023/09/13 03:09:41;;;;;;;11.68;9.55;;;21.80;89.70;;;;;;5053620;28;20021;-74
2023/09/13 03:12:07;;;;;;;13.18;10.63;;;21.80;89.60;;;;;;5053122;28;20102;-74
2023/09/13 03:14:33;;;;;;;11.43;9.60;;;21.80;89.70;;;;;;5053121;28;20040;-74
2023/09/13 03:16:59;;;;;;;14.10;9.85;;;21.80;89.90;;;;;;5053486;28;20532;-74
2023/09/13 03:19:25;;;;;;;11.35;10.13;;;21.80;89.70;;;;;;5044313;28;20143;-74
2023/09/13 03:21:51;;;;;;;12.15;9.85;;;21.80;89.80;;;;;;5032991;28;20010;-75
2023/09/13 03:24:16;;;;;;;10.35;9.02;;;21.80;89.80;;;;;;5032828;28;20060;-74
2023/09/13 03:26:42;;;;;;;11.93;10.10;;;21.80;89.70;;;;;;5032667;28;20520;-74
2023/09/13 03:29:08;;;;;;;11.18;8.82;;;21.80;89.60;;;;;;5032962;28;20113;-74
2023/09/13 03:31:36;;;;;;;11.63;10.43;;;21.80;89.50;;;;;;5033049;28;20047;-74
2023/09/13 03:34:02;;;;;;;14.25;9.30;;;21.80;89.50;;;;;;5033050;28;20065;-74
2023/09/13 03:36:28;;;;;;;10.07;9.07;;;21.90;89.60;;;;;;5033035;28;20042;-73
2023/09/13 03:38:54;;;;;;;12.57;8.90;;;21.90;89.60;;;;;;5033297;28;20477;-74
2023/09/13 03:41:21;;;;;;;19.60;10.07;;;21.90;89.50;;;;;;5033042;28;20017;-74
2023/09/13 03:43:48;;;;;;;16.63;9.68;;;21.90;89.50;;;;;;5033075;28;20385;-74
2023/09/13 03:46:13;;;;;;;10.75;9.38;;;21.90;89.50;;;;;;5031213;28;20022;-74
2023/09/13 03:48:40;;;;;;;18.38;9.75;;;21.90;89.60;;;;;;5033036;28;20091;-75
2023/09/13 03:51:07;;;;;;;10.90;9.65;;;21.90;89.40;;;;;;5031424;28;20103;-74
2023/09/13 03:53:33;;;;;;;12.73;9.73;;;21.90;89.50;;;;;;5032838;28;20037;-74
2023/09/13 03:56:00;;;;;;;15.15;10.57;;;21.90;89.60;;;;;;5032992;28;20018;-75
2023/09/13 03:58:26;;;;;;;16.15;10.90;;;21.90;89.70;;;;;;5032791;28;20029;-74
2023/09/13 04:00:53;;;;;;;10.80;9.57;;;21.90;89.40;;;;;;5032762;28;20033;-74
2023/09/13 04:03:19;;;;;;;13.35;10.25;;;21.90;89.40;;;;;;5032653;28;20022;-74
2023/09/13 04:05:45;;;;;;;15.07;10.95;;;21.80;89.60;;;;;;5031450;28;20092;-74
2023/09/13 04:08:11;;;;;;;10.80;9.63;;;21.80;89.60;;;;;;5032842;28;20056;-74
2023/09/13 04:10:37;;;;;;;22.95;10.45;;;21.80;89.80;;;;;;5032726;28;20132;-74
2023/09/13 04:13:03;;;;;;;12.82;10.85;;;21.80;90.00;;;;;;5032539;28;20017;-74
2023/09/13 04:15:29;;;;;;;16.92;9.93;;;21.80;90.00;;;;;;5031201;28;20055;-74
2023/09/13 04:17:55;;;;;;;12.13;10.43;;;21.80;89.90;;;;;;5031503;28;20379;-74
2023/09/13 04:20:21;;;;;;;13.60;10.57;;;21.70;89.80;;;;;;5032533;28;20018;-74
2023/09/13 04:22:47;;;;;;;15.60;9.90;;;21.70;89.90;;;;;;5032694;28;20025;-74
2023/09/13 04:25:13;;;;;;;18.30;10.45;;;21.70;90.00;;;;;;5032415;28;20033;-74
2023/09/13 04:27:42;;;;;;;15.65;9.60;;;21.60;90.10;;;;;;5032632;28;20061;-74
2023/09/13 04:30:08;;;;;;;17.25;10.43;;;21.60;90.10;;;;;;5032715;28;20032;-74
2023/09/13 04:32:34;;;;;;;15.40;10.30;;;21.70;90.20;;;;;;5032616;28;20497;-74
2023/09/13 04:35:00;;;;;;;18.45;10.45;;;21.70;90.60;;;;;;5032516;28;20057;-74
2023/09/13 04:37:26;;;;;;;13.27;9.57;;;21.70;90.30;;;;;;5032586;28;20531;-74
2023/09/13 04:39:51;;;;;;;16.40;9.77;;;21.70;90.30;;;;;;5032275;28;20026;-74
2023/09/13 04:42:17;;;;;;;11.75;10.00;;;21.70;90.30;;;;;;5032537;28;20385;-74
2023/09/13 04:44:43;;;;;;;11.70;9.77;;;21.70;90.30;;;;;;5034776;28;20021;-74
2023/09/13 04:47:09;;;;;;;15.32;10.07;;;21.70;90.30;;;;;;5032649;28;20550;-74
2023/09/13 04:49:36;;;;;;;13.13;9.75;;;21.70;90.30;;;;;;5032418;28;20025;-74
2023/09/13 04:52:03;;;;;;;11.25;9.90;;;21.70;90.30;;;;;;5032459;28;20041;-74
2023/09/13 04:54:29;;;;;;;13.82;10.57;;;21.70;90.20;;;;;;5032151;28;20083;-74
2023/09/13 04:56:55;;;;;;;16.25;11.00;;;21.70;90.30;;;;;;5032182;28;20071;-74
2023/09/13 04:59:24;;;;;;;14.57;10.40;;;21.70;90.30;;;;;;5031810;28;20100;-74
2023/09/13 05:01:50;;;;;;;12.07;10.88;;;21.70;90.20;;;;;;5044096;28;20384;-74
2023/09/13 05:04:16;;;;;;;15.80;10.68;;;21.70;90.30;;;;;;5053903;28;20029;-74
2023/09/13 05:06:41;;;;;;;18.75;10.20;;;21.60;90.30;;;;;;5055482;28;20053;-74
2023/09/13 05:09:07;;;;;;;16.17;10.70;;;21.60;90.30;;;;;;5055561;28;20094;-74
2023/09/13 05:11:33;;;;;;;13.88;10.40;;;21.60;90.30;;;;;;5055349;28;20049;-74
2023/09/13 05:14:14;;;;;;;18.40;10.18;;;21.70;90.40;;;;;;5055157;28;20035;-73
2023/09/13 05:16:41;;;;;;;13.07;9.68;;;21.70;90.40;;;;;;5055453;28;20028;-73
2023/09/13 05:19:07;;;;;;;16.48;11.13;;;21.60;90.30;;;;;;5055412;28;20025;-73
2023/09/13 05:21:33;;;;;;;22.13;11.63;;;21.60;90.30;;;;;;5055457;28;20095;-74
2023/09/13 05:24:00;;;;;;;22.27;11.18;;;21.50;90.40;;;;;;5055281;28;20078;-73
2023/09/13 05:26:31;;;;;;;34.13;13.70;;;21.50;90.40;;;;;;5054827;28;20358;-73
2023/09/13 05:28:57;;;;;;;26.00;13.90;;;21.60;90.40;;;;;;5054253;28;20027;-73
2023/09/13 05:31:23;;;;;;;32.30;15.30;;;21.50;90.50;;;;;;5055296;28;20017;-73
2023/09/13 05:33:48;;;;;;;37.28;16.02;;;21.50;90.50;;;;;;5055194;28;20033;-73
2023/09/13 05:36:15;;;;;;;38.50;15.38;;;21.50;90.60;;;;;;5055160;28;20020;-73
2023/09/13 05:38:41;;;;;;;30.98;14.85;;;21.50;90.70;;;;;;5054897;28;20021;-73
2023/09/13 05:41:11;;;;;;;41.15;14.73;;;21.50;90.70;;;;;;5054858;28;20025;-73
2023/09/13 05:43:39;;;;;;;31.83;13.77;;;21.50;90.80;;;;;;5055183;28;20037;-74
2023/09/13 05:46:05;;;;;;;25.30;13.18;;;21.50;91.20;;;;;;5055412;28;20052;-74
2023/09/13 05:48:31;;;;;;;34.15;13.50;;;21.50;91.00;;;;;;5054985;28;20388;-73
2023/09/13 05:50:57;;;;;;;27.48;12.93;;;21.50;91.00;;;;;;5054792;28;20426;-73
2023/09/13 05:53:23;;;;;;;26.58;13.15;;;21.50;91.10;;;;;;5054170;28;20033;-74
2023/09/13 05:55:49;;;;;;;30.60;12.38;;;21.50;91.20;;;;;;5054602;28;20350;-73
2023/09/13 05:58:15;;;;;;;23.05;12.32;;;21.60;91.30;;;;;;5054865;28;20031;-73
2023/09/13 06:00:47;;;;;;;20.48;11.10;;;21.60;91.30;;;;;;5055049;28;21054;-74
2023/09/13 06:03:15;;;;;;;18.05;11.93;;;21.70;91.40;;;;;;5054782;28;20536;-74
2023/09/13 06:05:41;;;;;;;23.23;11.10;;;21.60;91.40;;;;;;5054485;28;20052;-73
2023/09/13 06:08:07;;;;;;;17.65;11.48;;;21.70;91.40;;;;;;5049578;28;20041;-73
2023/09/13 06:10:33;;;;;;;14.68;10.95;;;21.70;91.40;;;;;;5034382;28;20053;-72
2023/09/13 06:12:58;;;;;;;12.43;11.02;;;21.70;91.40;;;;;;5045371;28;20151;-71
2023/09/13 06:15:24;;;;;;;13.52;10.32;;;21.80;91.30;;;;;;5054892;28;20079;-78
2023/09/13 06:17:51;;;;;;;14.07;10.93;;;21.90;91.20;;;;;;5068104;28;20044;-77
2023/09/13 06:20:17;;;;;;;14.95;10.85;;;21.90;91.10;;;;;;5070174;28;20029;-73
2023/09/13 06:22:43;;;;;;;18.42;10.63;;;21.90;91.10;;;;;;5067381;28;20029;-80
2023/09/13 06:25:09;;;;;;;17.30;10.85;;;22.00;91.10;;;;;;5054150;28;20025;-79
2023/09/13 06:27:35;;;;;;;14.50;11.05;;;22.10;90.90;;;;;;5053486;28;20364;-76
2023/09/13 06:30:00;;;;;;;24.25;11.43;;;22.10;90.90;;;;;;5053802;28;20029;-79
2023/09/13 06:32:26;;;;;;;21.02;10.70;;;22.10;91.00;;;;;;5053092;28;20100;-79
2023/09/13 06:34:56;;;;;;;20.02;10.50;;;22.20;91.10;;;;;;5051819;28;20043;-77
2023/09/13 06:37:22;;;;;;;21.80;10.25;;;22.20;91.10;;;;;;5053735;28;20021;-79
2023/09/13 06:39:48;;;;;;;15.57;9.90;;;22.20;91.10;;;;;;5053175;28;20477;-78
2023/09/13 06:42:13;;;;;;;15.73;10.32;;;22.20;91.00;;;;;;5052079;28;20021;-78
2023/09/13 06:44:40;;;;;;;10.60;9.50;;;22.30;91.00;;;;;;5050719;28;20017;-78
2023/09/13 06:47:06;;;;;;;14.05;10.20;;;22.30;90.90;;;;;;5050946;28;20485;-79
2023/09/13 06:49:32;;;;;;;14.18;10.38;;;22.30;90.70;;;;;;5052042;28;20707;-79
2023/09/13 06:51:57;;;;;;;16.38;9.73;;;22.30;90.60;;;;;;5051944;28;20036;-79
2023/09/13 06:54:23;;;;;;;14.30;10.43;;;22.30;90.60;;;;;;5052386;28;20449;-79
2023/09/13 06:56:49;;;;;;;14.05;9.52;;;22.40;90.70;;;;;;5053784;28;20025;-76
2023/09/13 06:59:14;;;;;;;17.65;10.38;;;22.30;90.70;;;;;;5053813;28;20025;-76
2023/09/13 07:01:40;;;;;;;16.00;10.32;;;22.30;90.70;;;;;;5053737;28;20021;-77
2023/09/13 07:04:06;;;;;;;16.80;10.35;;;22.40;90.70;;;;;;5053775;28;20392;-82
2023/09/13 07:06:32;;;;;;;24.98;10.00;;;22.40;90.70;;;;;;5052495;28;20476;-81
2023/09/13 07:08:58;;;;;;;20.80;10.52;;;22.40;90.70;;;;;;5053667;28;20033;-85
2023/09/13 07:11:24;;;;;;;12.93;9.98;;;22.40;90.40;;;;;;5053399;28;20049;-81
2023/09/13 07:13:49;;;;;;;13.88;9.90;;;22.50;90.40;;;;;;5053488;28;20067;-83
2023/09/13 07:16:15;;;;;;;20.88;10.65;;;22.50;90.30;;;;;;5053487;28;20021;-83
2023/09/13 07:18:41;;;;;;;16.38;10.07;;;22.50;90.20;;;;;;5053495;28;20029;-81
2023/09/13 07:21:07;;;;;;;17.65;9.77;;;22.60;90.30;;;;;;5053148;28;20013;-78
2023/09/13 07:23:33;;;;;;;12.82;10.18;;;22.60;90.30;;;;;;5053518;28;20385;-80
2023/09/13 07:25:59;;;;;;;18.20;10.18;;;22.60;90.20;;;;;;5053097;28;20028;-82
2023/09/13 07:28:26;;;;;;;14.25;10.00;;;22.70;90.30;;;;;;5053210;28;20466;-80
2023/09/13 07:30:52;;;;;;;12.70;9.85;;;22.70;90.30;;;;;;5052017;28;20021;-80
2023/09/13 07:33:17;;;;;;;12.65;9.98;;;22.70;90.30;;;;;;5052903;28;20389;-80
2023/09/13 07:35:44;;;;;;;13.02;9.70;;;22.70;90.30;;;;;;5052904;28;20025;-82
2023/09/13 07:38:10;;;;;;;15.48;9.40;;;22.80;90.10;;;;;;5053090;28;20445;-78
2023/09/13 07:40:40;;;;;;;16.77;9.73;;;22.80;90.20;;;;;;5051668;28;20053;-81
2023/09/13 07:43:07;;;;;;;17.63;10.05;;;22.90;90.20;;;;;;5052862;28;20078;-81
2023/09/13 07:45:34;;;;;;;17.80;9.85;;;22.90;90.10;;;;;;5052755;28;20021;-83
2023/09/13 07:48:00;;;;;;;17.33;10.25;;;22.90;90.20;;;;;;5052533;28;20162;-78
2023/09/13 07:50:33;;;;;;;14.40;9.85;;;23.00;90.30;;;;;;5052897;28;20097;-79
2023/09/13 07:52:59;;;;;;;16.88;9.88;;;23.00;90.30;;;;;;5052750;28;20029;-78
2023/09/13 07:55:26;;;;;;;15.75;9.00;;;23.00;90.30;;;;;;5052912;28;20025;-77
2023/09/13 07:57:52;;;;;;;31.10;9.23;;;23.10;90.10;;;;;;5052795;28;20439;-75
2023/09/13 08:00:18;;;;;;;18.52;8.90;;;23.10;90.00;;;;;;5052786;28;20017;-75
2023/09/13 08:02:46;;;;;;;11.20;8.23;;;23.10;89.70;;;;;;5052673;28;20029;-74
2023/09/13 08:05:12;;;;;;;10.32;8.20;;;23.10;89.50;;;;;;5052815;28;20106;-75
2023/09/13 08:07:38;;;;;;;9.05;7.88;;;23.20;89.20;;;;;;5052913;28;20029;-74
2023/09/13 08:10:04;;;;;;;13.45;8.23;;;23.20;89.20;;;;;;5052354;28;20024;-74
2023/09/13 08:12:30;;;;;;;13.07;8.60;;;23.30;89.30;;;;;;5052502;28;20373;-73
2023/09/13 08:14:56;;;;;;;15.82;8.10;;;23.30;89.10;;;;;;5052527;28;20033;-74
2023/09/13 08:17:22;;;;;;;9.10;7.75;;;23.30;88.80;;;;;;5052705;28;20063;-75
2023/09/13 08:19:49;;;;;;;8.57;7.07;;;23.40;88.60;;;;;;5052747;28;20025;-74
2023/09/13 08:22:15;;;;;;;10.77;7.75;;;23.40;88.10;;;;;;5052548;28;20496;-73
2023/09/13 08:24:41;;;;;;;11.88;7.57;;;23.50;87.80;;;;;;5052806;28;20025;-74
2023/09/13 08:27:07;;;;;;;21.30;7.63;;;23.50;87.50;;;;;;5052587;28;20025;-74
2023/09/13 08:29:35;;;;;;;12.07;8.07;;;23.60;87.30;;;;;;5052635;28;20033;-74
2023/09/13 08:32:01;;;;;;;12.93;7.85;;;23.60;87.20;;;;;;5052646;28;20033;-74
2023/09/13 08:34:26;;;;;;;9.00;7.40;;;23.60;87.10;;;;;;5052417;28;20045;-75
2023/09/13 08:36:55;;;;;;;14.55;7.40;;;23.70;87.10;;;;;;5052636;28;20079;-74
2023/09/13 08:39:20;;;;;;;11.50;8.43;;;23.70;87.50;;;;;;5054986;28;20411;-74
2023/09/13 08:41:50;;;;;;;17.95;8.38;;;23.70;87.80;;;;;;5056381;28;20021;-74
2023/09/13 08:44:20;;;;;;;14.20;8.80;;;23.70;87.80;;;;;;5056086;28;20025;-74
2023/09/13 08:46:50;;;;;;;10.10;7.82;;;23.80;89.30;;;;;;5056393;28;20104;-74
2023/09/13 08:49:17;;;;;;;9.40;8.05;;;23.80;90.00;;;;;;5055965;28;20025;-75
2023/09/13 08:51:47;;;;;;;15.07;8.13;;;23.80;89.90;;;;;;5055956;28;20017;-75
2023/09/13 08:54:16;;;;;;;12.45;7.85;;;23.90;90.00;;;;;;5055773;28;20048;-74
2023/09/13 08:56:43;;;;;;;11.43;7.68;;;23.90;89.80;;;;;;5055939;28;20488;-75
2023/09/13 08:59:09;;;;;;;9.10;8.10;;;24.00;90.70;;;;;;5055812;28;20100;-74
2023/09/13 09:01:37;;;;;;;10.63;8.52;;;24.00;90.70;;;;;;5056230;28;20373;-74
2023/09/13 09:04:03;;;;;;;11.57;7.63;;;24.10;91.00;;;;;;5055593;28;20025;-75
2023/09/13 09:06:33;;;;;;;8.70;7.80;;;24.10;91.00;;;;;;5055462;28;20608;-74
2023/09/13 09:09:00;;;;;;;13.43;8.60;;;24.20;91.00;;;;;;5055624;28;20055;-75
2023/09/13 09:11:29;;;;;;;9.48;7.97;;;24.20;91.00;;;;;;5054317;28;20452;-75
2023/09/13 09:13:57;;;;;;;8.65;7.85;;;24.30;91.00;;;;;;5054591;28;20466;-74
2023/09/13 09:16:26;;;;;;;12.77;8.07;;;24.30;90.80;;;;;;5054506;28;20446;-75
2023/09/13 09:18:54;;;;;;;10.57;6.75;;;24.40;91.10;;;;;;5055155;28;20075;-75
2023/09/13 09:21:20;;;;;;;10.05;7.55;;;24.50;90.80;;;;;;5054085;28;20527;-75
2023/09/13 09:23:46;;;;;;;11.40;7.40;;;24.50;91.00;;;;;;5055390;28;20028;-78
2023/09/13 09:26:11;;;;;;;9.55;6.50;;;24.60;90.70;;;;;;5055421;28;20070;-80
2023/09/13 09:28:37;;;;;;;8.95;7.20;;;24.60;90.20;;;;;;5055323;28;20028;-79
2023/09/13 09:31:04;;;;;;;8.20;7.25;;;24.70;90.40;;;;;;5055179;28;20028;-79
2023/09/13 09:33:31;;;;;;;8.02;7.05;;;24.70;90.00;;;;;;5055123;28;20037;-77
2023/09/13 09:36:00;;;;;;;12.25;6.47;;;24.80;90.10;;;;;;5055537;28;20029;-74
2023/09/13 09:38:28;;;;;;;8.90;6.45;;;24.80;86.80;;;;;;5055049;28;20503;-75
2023/09/13 09:41:06;;;;;;;9.32;5.97;;;24.80;86.50;;;;;;5054784;28;20028;-79
2023/09/13 09:43:32;;;;;;;8.70;6.70;;;24.90;86.50;;;;;;5054829;28;20075;-77
2023/09/13 09:45:58;;;;;;;8.20;6.32;;;24.90;86.30;;;;;;5054822;28;20025;-78
2023/09/13 09:48:25;;;;;;;6.75;5.97;;;24.90;85.90;;;;;;5054949;28;20021;-78
2023/09/13 09:50:53;;;;;;;13.13;6.15;;;24.90;84.60;;;;;;5054539;28;20025;-78
2023/09/13 09:53:23;;;;;;;15.13;6.30;;;24.90;83.60;;;;;;5055137;28;20057;-79
2023/09/13 09:55:50;;;;;;;10.70;5.88;;;24.90;83.50;;;;;;5054488;28;20063;-76
2023/09/13 09:58:17;;;;;;;8.70;6.30;;;24.90;82.80;;;;;;5054796;28;20021;-79
2023/09/13 10:00:47;;;;;;;9.73;6.57;;;24.90;83.10;;;;;;5053427;28;20021;-79
2023/09/13 10:03:17;;;;;;;11.55;6.93;;;24.90;83.50;;;;;;5054451;28;20025;-78
2023/09/13 10:06:06;;;;;;;8.52;6.30;;;25.00;83.20;;;;;;5054601;28;20040;-76
2023/09/13 10:08:40;;;;;;;12.98;6.55;;;25.00;82.30;;;;;;5054729;28;20052;-75
2023/09/13 10:11:10;;;;;;;7.20;5.97;;;25.00;78.80;;;;;;5054562;28;20053;-78
2023/09/13 10:13:37;;;;;;;9.95;5.80;;;25.10;79.30;;;;;;5054478;28;20041;-77
2023/09/13 10:16:06;;;;;;;6.20;5.60;;;25.10;79.60;;;;;;5054216;28;20525;-79
2023/09/13 10:18:36;;;;;;;11.85;6.20;;;25.10;78.50;;;;;;5054499;28;20021;-76
2023/09/13 10:21:06;;;;;;;10.55;6.55;;;25.10;78.30;;;;;;5054392;28;20500;-78
2023/09/13 10:23:44;;;;;;;6.72;5.75;;;25.10;79.00;;;;;;5054389;28;20033;-78
2023/09/13 10:26:13;;;;;;;9.15;5.95;;;25.20;79.00;;;;;;5053883;28;20061;-79
2023/09/13 10:28:43;;;;;;;12.65;6.20;;;25.20;79.30;;;;;;5053961;28;20392;-78
2023/09/13 10:31:17;;;;;;;10.80;5.80;;;25.20;78.70;;;;;;5054347;28;20026;-79
2023/09/13 10:33:47;;;;;;;9.70;6.07;;;25.20;77.80;;;;;;5054191;28;20036;-79
2023/09/13 10:36:21;;;;;;;9.40;5.60;;;25.20;78.40;;;;;;5053877;28;20017;-79
2023/09/13 10:38:58;;;;;;;10.68;6.00;;;25.20;77.30;;;;;;5053956;28;20457;-78
2023/09/13 10:41:28;;;;;;;6.90;5.95;;;25.30;76.80;;;;;;5054111;28;20533;-77
2023/09/13 10:43:54;;;;;;;15.63;5.97;;;25.20;77.90;;;;;;5053768;28;20481;-78
2023/09/13 10:46:21;;;;;;;7.10;6.28;;;25.20;77.50;;;;;;5053699;28;20495;-79
2023/09/13 10:48:48;;;;;;;8.85;5.60;;;25.30;77.90;;;;;;5053394;28;20013;-77
2023/09/13 10:51:16;;;;;;;9.50;6.13;;;25.30;78.00;;;;;;5053491;28;20396;-77
2023/09/13 10:53:43;;;;;;;11.23;6.45;;;25.30;78.10;;;;;;5053432;28;20412;-78
2023/09/13 10:56:11;;;;;;;12.73;6.95;;;25.30;77.90;;;;;;5053699;28;20033;-77
2023/09/13 10:58:39;;;;;;;29.70;7.55;;;25.30;79.10;;;;;;5053412;28;20103;-78
2023/09/13 11:01:06;;;;;;;11.10;6.75;;;25.40;79.80;;;;;;5052366;28;20064;-77
2023/09/13 11:03:32;;;;;;;6.90;6.15;;;25.40;80.30;;;;;;5052506;28;20557;-74
2023/09/13 11:05:58;;;;;;;9.18;6.90;;;25.40;81.00;;;;;;5053376;28;20096;-76
2023/09/13 11:08:28;;;;;;;7.22;6.10;;;25.40;81.50;;;;;;5053646;28;20048;-75
2023/09/13 11:10:55;;;;;;;8.05;6.18;;;25.40;81.60;;;;;;5053537;28;20049;-76
2023/09/13 11:13:30;;;;;;;13.75;6.68;;;25.40;81.10;;;;;;5053277;28;20025;-77
2023/09/13 11:15:59;;;;;;;9.98;6.68;;;25.40;81.60;;;;;;5053588;28;20021;-76
2023/09/13 11:18:26;;;;;;;14.55;6.97;;;25.40;81.70;;;;;;5053220;28;20435;-76
2023/09/13 11:20:56;;;;;;;9.05;6.80;;;25.30;81.80;;;;;;5052759;28;20029;-77
2023/09/13 11:23:22;;;;;;;10.27;6.68;;;25.30;82.20;;;;;;5052979;28;20369;-74
2023/09/13 11:26:00;;;;;;;8.00;7.15;;;25.20;82.20;;;;;;5053132;28;20477;-77
2023/09/13 11:28:38;;;;;;;10.10;7.28;;;25.20;82.50;;;;;;5052989;28;20040;-76
2023/09/13 11:31:06;;;;;;;10.07;6.68;;;25.20;83.20;;;;;;5053083;28;20025;-75
2023/09/13 11:33:39;;;;;;;9.38;6.80;;;25.20;83.00;;;;;;5053391;28;20366;-75
2023/09/13 11:36:05;;;;;;;10.23;6.68;;;25.20;83.20;;;;;;5052970;28;20079;-75
2023/09/13 11:38:30;;;;;;;8.27;7.00;;;25.20;83.60;;;;;;5052770;28;20036;-75
2023/09/13 11:40:58;;;;;;;8.50;6.60;;;25.10;83.60;;;;;;5052644;28;20048;-75
2023/09/13 11:43:28;;;;;;;7.68;6.78;;;25.10;83.60;;;;;;5052777;28;20504;-76
2023/09/13 11:45:58;;;;;;;8.88;6.72;;;25.10;83.60;;;;;;5053050;28;20032;-76
2023/09/13 11:48:32;;;;;;;10.20;6.57;;;25.10;83.70;;;;;;5051447;28;20028;-76
2023/09/13 11:51:11;;;;;;;8.32;6.80;;;25.10;83.90;;;;;;5052819;28;20025;-76
2023/09/13 11:53:37;;;;;;;10.57;6.68;;;25.00;84.30;;;;;;5052785;28;20037;-75
2023/09/13 11:56:03;;;;;;;16.70;8.07;;;25.10;84.00;;;;;;5051202;28;20116;-76
2023/09/13 11:58:32;;;;;;;14.65;7.15;;;25.00;83.90;;;;;;5052721;28;20151;-76
2023/09/13 12:01:00;;;;;;;8.23;6.97;;;25.00;84.30;;;;;;5052464;28;20029;-76
2023/09/13 12:03:43;;;;;;;7.47;6.78;;;25.00;84.80;;;;;;5052632;28;20096;-77
2023/09/13 12:06:09;;;;;;;10.25;7.32;;;25.00;85.60;;;;;;5052044;28;20032;-77
2023/09/13 12:08:37;;;;;;;9.75;6.90;;;25.00;85.50;;;;;;5052567;28;20025;-75
2023/09/13 12:11:08;;;;;;;8.60;7.25;;;25.00;85.50;;;;;;5052383;28;20744;-76
2023/09/13 12:13:43;;;;;;;9.43;7.40;;;25.00;85.60;;;;;;5055799;28;20465;-76
2023/09/13 12:16:09;;;;;;;8.48;7.63;;;25.00;85.80;;;;;;5056436;28;20021;-76
2023/09/13 12:18:36;;;;;;;8.85;7.07;;;25.00;86.40;;;;;;5056857;28;20087;-77
2023/09/13 12:21:02;;;;;;;11.77;7.13;;;25.00;86.60;;;;;;5056639;28;20502;-75
2023/09/13 12:23:32;;;;;;;10.00;6.90;;;25.00;86.70;;;;;;5056666;28;20027;-75
2023/09/13 12:25:58;;;;;;;9.75;7.32;;;25.00;86.90;;;;;;5056446;28;20095;-75
2023/09/13 12:28:28;;;;;;;9.85;7.25;;;24.90;87.20;;;;;;5056204;28;20029;-74
2023/09/13 12:30:55;;;;;;;7.97;7.18;;;24.90;87.20;;;;;;5056476;28;20021;-70
2023/09/13 12:33:22;;;;;;;11.18;7.30;;;25.00;87.20;;;;;;5056341;28;20519;-74
2023/09/13 12:35:50;;;;;;;9.63;7.60;;;24.90;87.10;;;;;;5056379;28;20075;-74
2023/09/13 12:38:17;;;;;;;9.02;7.90;;;24.90;87.10;;;;;;5055818;28;20055;-74